sensor_id;sensor_type;location;lat;lon;timestamp;temperature;humidity
18648;DHT22;9453;50.294;18.644;2022-11-15T05:02:53;4.50;99.90
18648;DHT22;9453;50.294;18.644;2022-11-15T05:05:39;4.50;99.90
18648;DHT22;9453;50.294;18.644;2022-11-15T05:08:05;4.50;99.90
18648;DHT22;9453;50.294;18.644;2022-11-15T05:10:33;4.50;99.90
18648;DHT22;9453;50.294;18.644;2022-11-15T05:13:00;4.40;99.90
18648;DHT22;9453;50.294;18.644;2022-11-15T05:15:27;4.40;99.90
18648;DHT22;9453;50.294;18.644;2022-11-15T05:17:58;4.40;99.90
18648;DHT22;9453;50.294;18.644;2022-11-15T05:20:26;4.40;99.90
18648;DHT22;9453;50.294;18.644;2022-11-15T05:22:53;4.40;99.90
18648;DHT22;9453;50.294;18.644;2022-11-15T05:25:20;4.20;99.90
18648;DHT22;9453;50.294;18.644;2022-11-15T05:27:47;4.30;99.90
18648;DHT22;9453;50.294;18.644;2022-11-15T05:30:15;4.30;99.90
18648;DHT22;9453;50.294;18.644;2022-11-15T05:32:42;4.20;99.90
18648;DHT22;9453;50.294;18.644;2022-11-15T05:35:13;4.20;99.90
18648;DHT22;9453;50.294;18.644;2022-11-15T05:37:42;4.20;99.90
18648;DHT22;9453;50.294;18.644;2022-11-15T05:40:09;4.20;99.90
18648;DHT22;9453;50.294;18.644;2022-11-15T05:42:36;4.20;99.90
18648;DHT22;9453;50.294;18.644;2022-11-15T05:45:05;4.20;99.90
18648;DHT22;9453;50.294;18.644;2022-11-15T05:47:34;4.20;99.90
18648;DHT22;9453;50.294;18.644;2022-11-15T05:50:05;4.20;99.90
18648;DHT22;9453;50.294;18.644;2022-11-15T05:52:35;4.20;99.90
18648;DHT22;9453;50.294;18.644;2022-11-15T05:55:04;4.10;99.90
18648;DHT22;9453;50.294;18.644;2022-11-15T05:57:44;4.10;99.90
18648;DHT22;9453;50.294;18.644;2022-11-15T06:00:12;4.10;99.90
18648;DHT22;9453;50.294;18.644;2022-11-15T06:02:39;4.10;99.90
18648;DHT22;9453;50.294;18.644;2022-11-15T06:05:07;4.10;99.90
18648;DHT22;9453;50.294;18.644;2022-11-15T06:07:35;4.10;99.90
18648;DHT22;9453;50.294;18.644;2022-11-15T06:10:03;4.00;99.90
18648;DHT22;9453;50.294;18.644;2022-11-15T06:12:30;4.10;99.90
18648;DHT22;9453;50.294;18.644;2022-11-15T06:14:56;4.10;99.90
18648;DHT22;9453;50.294;18.644;2022-11-15T06:17:23;4.10;99.90
18648;DHT22;9453;50.294;18.644;2022-11-15T06:19:50;4.10;99.90
18648;DHT22;9453;50.294;18.644;2022-11-15T06:22:17;4.20;99.90
18648;DHT22;9453;50.294;18.644;2022-11-15T06:24:45;4.10;99.90
18648;DHT22;9453;50.294;18.644;2022-11-15T06:27:12;4.20;99.90
18648;DHT22;9453;50.294;18.644;2022-11-15T06:29:39;4.10;99.90
18648;DHT22;9453;50.294;18.644;2022-11-15T06:32:07;4.20;99.90
18648;DHT22;9453;50.294;18.644;2022-11-15T06:34:34;4.20;99.90
18648;DHT22;9453;50.294;18.644;2022-11-15T06:37:02;4.30;99.90
18648;DHT22;9453;50.294;18.644;2022-11-15T06:39:29;4.30;99.90
18648;DHT22;9453;50.294;18.644;2022-11-15T06:41:57;4.30;99.90
18648;DHT22;9453;50.294;18.644;2022-11-15T06:44:24;4.30;99.90
18648;DHT22;9453;50.294;18.644;2022-11-15T06:46:51;4.40;99.90
18648;DHT22;9453;50.294;18.644;2022-11-15T06:49:18;4.40;99.90
18648;DHT22;9453;50.294;18.644;2022-11-15T06:51:45;4.50;99.90
18648;DHT22;9453;50.294;18.644;2022-11-15T06:54:11;4.50;99.90
18648;DHT22;9453;50.294;18.644;2022-11-15T06:56:38;4.60;99.90
18648;DHT22;9453;50.294;18.644;2022-11-15T06:59:07;4.70;99.90
18648;DHT22;9453;50.294;18.644;2022-11-15T07:01:34;4.70;99.90
18648;DHT22;9453;50.294;18.644;2022-11-15T07:04:00;4.70;99.90
18648;DHT22;9453;50.294;18.644;2022-11-15T07:06:30;4.80;99.90
18648;DHT22;9453;50.294;18.644;2022-11-15T07:08:57;4.80;99.90
18648;DHT22;9453;50.294;18.644;2022-11-15T07:11:24;4.80;99.90
18648;DHT22;9453;50.294;18.644;2022-11-15T07:13:51;4.80;99.90
18648;DHT22;9453;50.294;18.644;2022-11-15T07:16:22;4.90;99.90
18648;DHT22;9453;50.294;18.644;2022-11-15T07:18:49;4.90;99.90
18648;DHT22;9453;50.294;18.644;2022-11-15T07:21:16;5.00;99.90
18648;DHT22;9453;50.294;18.644;2022-11-15T07:23:43;5.10;99.90
18648;DHT22;9453;50.294;18.644;2022-11-15T07:26:10;5.10;99.90
18648;DHT22;9453;50.294;18.644;2022-11-15T07:28:37;5.20;99.90
18648;DHT22;9453;50.294;18.644;2022-11-15T07:31:05;5.40;99.90
18648;DHT22;9453;50.294;18.644;2022-11-15T07:33:34;5.30;99.90
18648;DHT22;9453;50.294;18.644;2022-11-15T07:36:01;5.30;99.90
18648;DHT22;9453;50.294;18.644;2022-11-15T07:38:29;5.30;99.90
18648;DHT22;9453;50.294;18.644;2022-11-15T07:40:57;5.30;99.90
18648;DHT22;9453;50.294;18.644;2022-11-15T07:43:24;5.30;99.90
18648;DHT22;9453;50.294;18.644;2022-11-15T07:45:53;5.40;99.90
18648;DHT22;9453;50.294;18.644;2022-11-15T07:48:20;5.50;99.90
18648;DHT22;9453;50.294;18.644;2022-11-15T07:50:49;5.50;99.90
18648;DHT22;9453;50.294;18.644;2022-11-15T07:53:16;5.60;99.90
18648;DHT22;9453;50.294;18.644;2022-11-15T07:55:42;5.70;99.90
18648;DHT22;9453;50.294;18.644;2022-11-15T07:58:10;5.80;99.90
18648;DHT22;9453;50.294;18.644;2022-11-15T08:00:38;5.70;99.90
18648;DHT22;9453;50.294;18.644;2022-11-15T08:03:09;5.80;99.90
18648;DHT22;9453;50.294;18.644;2022-11-15T08:05:38;5.80;99.90
18648;DHT22;9453;50.294;18.644;2022-11-15T08:08:08;5.90;99.90
18648;DHT22;9453;50.294;18.644;2022-11-15T08:10:35;6.00;99.90
18648;DHT22;9453;50.294;18.644;2022-11-15T08:13:04;6.10;99.90
18648;DHT22;9453;50.294;18.644;2022-11-15T08:15:33;6.20;99.90
18648;DHT22;9453;50.294;18.644;2022-11-15T08:18:04;6.20;99.90
18648;DHT22;9453;50.294;18.644;2022-11-15T08:20:32;6.30;99.90
18648;DHT22;9453;50.294;18.644;2022-11-15T08:23:01;6.60;99.90
18648;DHT22;9453;50.294;18.644;2022-11-15T08:25:31;6.50;99.90
18648;DHT22;9453;50.294;18.644;2022-11-15T08:28:00;6.60;99.90
18648;DHT22;9453;50.294;18.644;2022-11-15T08:30:27;6.70;99.90
18648;DHT22;9453;50.294;18.644;2022-11-15T08:32:57;6.60;99.90
18648;DHT22;9453;50.294;18.644;2022-11-15T08:35:24;6.80;99.90
18648;DHT22;9453;50.294;18.644;2022-11-15T08:37:53;6.90;99.90
18648;DHT22;9453;50.294;18.644;2022-11-15T08:40:20;7.00;99.90
18648;DHT22;9453;50.294;18.644;2022-11-15T08:42:48;7.10;99.90
18648;DHT22;9453;50.294;18.644;2022-11-15T08:45:15;7.10;99.90
18648;DHT22;9453;50.294;18.644;2022-11-15T08:47:42;7.30;99.90
18648;DHT22;9453;50.294;18.644;2022-11-15T08:50:09;7.40;99.90
18648;DHT22;9453;50.294;18.644;2022-11-15T08:52:36;7.60;99.90
18648;DHT22;9453;50.294;18.644;2022-11-15T08:55:04;7.60;99.90
18648;DHT22;9453;50.294;18.644;2022-11-15T08:57:31;7.80;99.90
18648;DHT22;9453;50.294;18.644;2022-11-15T08:59:59;7.90;99.90
18648;DHT22;9453;50.294;18.644;2022-11-15T09:02:26;8.00;99.90
18648;DHT22;9453;50.294;18.644;2022-11-15T09:04:53;8.20;99.90
18648;DHT22;9453;50.294;18.644;2022-11-15T09:07:20;8.30;99.90
18648;DHT22;9453;50.294;18.644;2022-11-15T09:09:47;8.50;99.90
18648;DHT22;9453;50.294;18.644;2022-11-15T09:12:14;8.60;99.90
18648;DHT22;9453;50.294;18.644;2022-11-15T09:14:41;8.80;99.90
18648;DHT22;9453;50.294;18.644;2022-11-15T09:17:09;8.90;99.90
18648;DHT22;9453;50.294;18.644;2022-11-15T09:19:36;9.10;99.90
18648;DHT22;9453;50.294;18.644;2022-11-15T09:22:05;9.30;99.90
18648;DHT22;9453;50.294;18.644;2022-11-15T09:24:33;9.40;99.90
18648;DHT22;9453;50.294;18.644;2022-11-15T09:27:00;9.50;99.90
18648;DHT22;9453;50.294;18.644;2022-11-15T09:29:27;9.60;99.90
18648;DHT22;9453;50.294;18.644;2022-11-15T09:31:54;9.80;99.90
18648;DHT22;9453;50.294;18.644;2022-11-15T09:34:22;10.00;99.90
18648;DHT22;9453;50.294;18.644;2022-11-15T09:36:49;10.10;99.90
18648;DHT22;9453;50.294;18.644;2022-11-15T09:39:16;10.20;99.90
18648;DHT22;9453;50.294;18.644;2022-11-15T09:41:52;10.30;99.90
18648;DHT22;9453;50.294;18.644;2022-11-15T09:47:42;10.40;99.90
18648;DHT22;9453;50.294;18.644;2022-11-15T09:50:15;10.40;99.90
18648;DHT22;9453;50.294;18.644;2022-11-15T09:52:44;10.50;99.90
18648;DHT22;9453;50.294;18.644;2022-11-15T09:55:13;10.50;99.90
18648;DHT22;9453;50.294;18.644;2022-11-15T09:57:52;10.50;99.90
18648;DHT22;9453;50.294;18.644;2022-11-15T10:00:24;10.60;99.90
18648;DHT22;9453;50.294;18.644;2022-11-15T10:03:03;10.50;99.90
18648;DHT22;9453;50.294;18.644;2022-11-15T10:05:38;10.50;99.90
18648;DHT22;9453;50.294;18.644;2022-11-15T10:08:18;10.40;99.90
18648;DHT22;9453;50.294;18.644;2022-11-15T10:10:51;10.40;99.90
18648;DHT22;9453;50.294;18.644;2022-11-15T10:13:23;10.40;99.90
18648;DHT22;9453;50.294;18.644;2022-11-15T10:15:53;10.40;99.90
18648;DHT22;9453;50.294;18.644;2022-11-15T10:18:25;10.40;99.90
18648;DHT22;9453;50.294;18.644;2022-11-15T10:21:12;10.30;99.90
18648;DHT22;9453;50.294;18.644;2022-11-15T10:23:42;10.30;99.90
18648;DHT22;9453;50.294;18.644;2022-11-15T10:26:11;10.30;99.90
18648;DHT22;9453;50.294;18.644;2022-11-15T10:28:40;10.20;99.90
18648;DHT22;9453;50.294;18.644;2022-11-15T10:31:21;10.30;99.90
18648;DHT22;9453;50.294;18.644;2022-11-15T10:33:49;10.30;99.90
18648;DHT22;9453;50.294;18.644;2022-11-15T10:36:23;10.40;99.90
18648;DHT22;9453;50.294;18.644;2022-11-15T10:38:58;10.30;99.90
18648;DHT22;9453;50.294;18.644;2022-11-15T10:41:34;10.50;99.90
18648;DHT22;9453;50.294;18.644;2022-11-15T10:44:12;10.50;99.90
18648;DHT22;9453;50.294;18.644;2022-11-15T10:46:40;10.50;99.90
18648;DHT22;9453;50.294;18.644;2022-11-15T10:49:13;10.60;99.90
18648;DHT22;9453;50.294;18.644;2022-11-15T10:51:45;10.70;99.90
18648;DHT22;9453;50.294;18.644;2022-11-15T10:54:14;10.80;99.90
18648;DHT22;9453;50.294;18.644;2022-11-15T10:56:49;10.80;99.90
18648;DHT22;9453;50.294;18.644;2022-11-15T10:59:25;10.90;99.90
18648;DHT22;9453;50.294;18.644;2022-11-15T11:01:52;10.90;99.90
18648;DHT22;9453;50.294;18.644;2022-11-15T11:04:19;11.10;99.90
18648;DHT22;9453;50.294;18.644;2022-11-15T11:06:49;11.20;99.90
18648;DHT22;9453;50.294;18.644;2022-11-15T11:09:28;11.30;99.90
18648;DHT22;9453;50.294;18.644;2022-11-15T11:11:55;11.40;99.90
18648;DHT22;9453;50.294;18.644;2022-11-15T11:14:24;11.50;99.90
18648;DHT22;9453;50.294;18.644;2022-11-15T11:16:55;11.60;99.90
18648;DHT22;9453;50.294;18.644;2022-11-15T11:19:46;11.70;99.90
18648;DHT22;9453;50.294;18.644;2022-11-15T11:22:26;11.70;99.90
18648;DHT22;9453;50.294;18.644;2022-11-15T11:25:05;11.70;99.90
18648;DHT22;9453;50.294;18.644;2022-11-15T11:27:43;11.80;99.90
18648;DHT22;9453;50.294;18.644;2022-11-15T11:30:14;11.80;99.90
18648;DHT22;9453;50.294;18.644;2022-11-15T11:33:04;11.80;99.90
18648;DHT22;9453;50.294;18.644;2022-11-15T11:35:37;11.80;99.90
18648;DHT22;9453;50.294;18.644;2022-11-15T11:38:20;11.80;99.90
18648;DHT22;9453;50.294;18.644;2022-11-15T11:40:59;11.80;99.90
18648;DHT22;9453;50.294;18.644;2022-11-15T11:43:34;11.90;99.90
18648;DHT22;9453;50.294;18.644;2022-11-15T11:46:14;12.00;99.90
18648;DHT22;9453;50.294;18.644;2022-11-15T11:48:46;12.10;99.90
18648;DHT22;9453;50.294;18.644;2022-11-15T11:51:18;12.20;99.90
18648;DHT22;9453;50.294;18.644;2022-11-15T11:53:52;12.20;99.90
18648;DHT22;9453;50.294;18.644;2022-11-15T11:56:25;12.30;99.90
18648;DHT22;9453;50.294;18.644;2022-11-15T11:58:54;12.40;99.90
18648;DHT22;9453;50.294;18.644;2022-11-15T12:01:25;12.50;99.90
18648;DHT22;9453;50.294;18.644;2022-11-15T12:03:59;12.60;99.90
18648;DHT22;9453;50.294;18.644;2022-11-15T12:06:31;12.50;99.90
18648;DHT22;9453;50.294;18.644;2022-11-15T12:09:11;12.70;99.90
18648;DHT22;9453;50.294;18.644;2022-11-15T12:11:47;12.80;99.90
18648;DHT22;9453;50.294;18.644;2022-11-15T12:14:25;12.80;99.90
18648;DHT22;9453;50.294;18.644;2022-11-15T12:16:53;12.90;99.90
18648;DHT22;9453;50.294;18.644;2022-11-15T12:19:20;12.90;99.90
18648;DHT22;9453;50.294;18.644;2022-11-15T12:21:49;13.00;99.90
18648;DHT22;9453;50.294;18.644;2022-11-15T12:24:20;13.10;99.90
18648;DHT22;9453;50.294;18.644;2022-11-15T12:26:50;13.10;99.90
18648;DHT22;9453;50.294;18.644;2022-11-15T12:29:27;13.10;99.90
18648;DHT22;9453;50.294;18.644;2022-11-15T12:31:56;13.10;99.90
18648;DHT22;9453;50.294;18.644;2022-11-15T12:34:46;13.10;99.90
18648;DHT22;9453;50.294;18.644;2022-11-15T12:40:35;13.20;99.90
18648;DHT22;9453;50.294;18.644;2022-11-15T12:45:47;13.10;99.90
18648;DHT22;9453;50.294;18.644;2022-11-15T12:48:46;13.10;99.90
18648;DHT22;9453;50.294;18.644;2022-11-15T12:51:13;13.10;99.90
18648;DHT22;9453;50.294;18.644;2022-11-15T12:53:40;13.10;99.90
18648;DHT22;9453;50.294;18.644;2022-11-15T12:56:26;13.10;99.90
18648;DHT22;9453;50.294;18.644;2022-11-15T12:58:55;13.10;99.90
18648;DHT22;9453;50.294;18.644;2022-11-15T13:04:28;13.10;99.90
18648;DHT22;9453;50.294;18.644;2022-11-15T13:06:56;13.10;99.90
18648;DHT22;9453;50.294;18.644;2022-11-15T13:09:50;13.10;99.90
18648;DHT22;9453;50.294;18.644;2022-11-15T13:12:49;13.10;99.90
18648;DHT22;9453;50.294;18.644;2022-11-15T13:15:38;13.10;99.90
18648;DHT22;9453;50.294;18.644;2022-11-15T13:18:28;13.00;99.90
18648;DHT22;9453;50.294;18.644;2022-11-15T13:20:56;13.00;99.90
18648;DHT22;9453;50.294;18.644;2022-11-15T13:23:23;12.90;99.90
18648;DHT22;9453;50.294;18.644;2022-11-15T13:26:12;12.90;99.90
18648;DHT22;9453;50.294;18.644;2022-11-15T13:28:44;12.80;99.90
18648;DHT22;9453;50.294;18.644;2022-11-15T13:31:27;12.80;99.90
18648;DHT22;9453;50.294;18.644;2022-11-15T13:33:59;12.70;99.90
18648;DHT22;9453;50.294;18.644;2022-11-15T13:36:29;12.60;99.90
18648;DHT22;9453;50.294;18.644;2022-11-15T13:38:59;12.60;99.90
18648;DHT22;9453;50.294;18.644;2022-11-15T13:41:28;12.40;99.90
18648;DHT22;9453;50.294;18.644;2022-11-15T13:43:58;12.40;99.90
18648;DHT22;9453;50.294;18.644;2022-11-15T13:46:27;12.30;99.90
18648;DHT22;9453;50.294;18.644;2022-11-15T13:48:58;12.20;99.90
18648;DHT22;9453;50.294;18.644;2022-11-15T13:51:33;12.20;99.90
18648;DHT22;9453;50.294;18.644;2022-11-15T13:54:08;12.20;99.90
18648;DHT22;9453;50.294;18.644;2022-11-15T13:56:41;12.10;99.90
18648;DHT22;9453;50.294;18.644;2022-11-15T13:59:14;12.20;99.90
18648;DHT22;9453;50.294;18.644;2022-11-15T14:01:42;12.20;99.90
18648;DHT22;9453;50.294;18.644;2022-11-15T14:04:13;12.10;99.90
18648;DHT22;9453;50.294;18.644;2022-11-15T14:06:46;12.00;99.90
18648;DHT22;9453;50.294;18.644;2022-11-15T14:12:28;11.90;99.90
18648;DHT22;9453;50.294;18.644;2022-11-15T14:14:57;11.90;99.90
18648;DHT22;9453;50.294;18.644;2022-11-15T14:17:36;11.90;99.90
18648;DHT22;9453;50.294;18.644;2022-11-15T14:20:19;11.90;99.90
18648;DHT22;9453;50.294;18.644;2022-11-15T14:22:54;11.80;99.90
18648;DHT22;9453;50.294;18.644;2022-11-15T14:25:22;11.70;99.90
18648;DHT22;9453;50.294;18.644;2022-11-15T14:28:16;11.70;99.90
18648;DHT22;9453;50.294;18.644;2022-11-15T14:30:57;11.70;99.90
18648;DHT22;9453;50.294;18.644;2022-11-15T14:33:27;11.60;99.90
18648;DHT22;9453;50.294;18.644;2022-11-15T14:35:56;11.60;99.90
18648;DHT22;9453;50.294;18.644;2022-11-15T14:38:24;11.60;99.90
18648;DHT22;9453;50.294;18.644;2022-11-15T14:40:51;11.60;99.90
18648;DHT22;9453;50.294;18.644;2022-11-15T14:43:19;11.50;99.90
18648;DHT22;9453;50.294;18.644;2022-11-15T14:45:46;11.50;99.90
18648;DHT22;9453;50.294;18.644;2022-11-15T14:48:14;11.60;99.90
18648;DHT22;9453;50.294;18.644;2022-11-15T14:50:44;11.50;99.90
18648;DHT22;9453;50.294;18.644;2022-11-15T14:53:12;11.50;99.90
18648;DHT22;9453;50.294;18.644;2022-11-15T14:55:40;11.40;99.90
18648;DHT22;9453;50.294;18.644;2022-11-15T14:58:07;11.40;99.90
18648;DHT22;9453;50.294;18.644;2022-11-15T15:00:34;11.40;99.90
18648;DHT22;9453;50.294;18.644;2022-11-15T15:03:02;11.40;99.90
18648;DHT22;9453;50.294;18.644;2022-11-15T15:05:33;11.40;99.90
18648;DHT22;9453;50.294;18.644;2022-11-15T15:08:01;11.40;99.90
18648;DHT22;9453;50.294;18.644;2022-11-15T15:10:31;11.40;99.90
18648;DHT22;9453;50.294;18.644;2022-11-15T15:12:58;11.30;99.90
18648;DHT22;9453;50.294;18.644;2022-11-15T15:15:31;11.30;99.90
18648;DHT22;9453;50.294;18.644;2022-11-15T15:17:58;11.30;99.90
18648;DHT22;9453;50.294;18.644;2022-11-15T15:20:25;11.30;99.90
18648;DHT22;9453;50.294;18.644;2022-11-15T15:22:54;11.30;99.90
18648;DHT22;9453;50.294;18.644;2022-11-15T15:25:23;11.20;99.90
18648;DHT22;9453;50.294;18.644;2022-11-15T15:27:52;11.20;99.90
18648;DHT22;9453;50.294;18.644;2022-11-15T15:30:20;11.10;99.90
18648;DHT22;9453;50.294;18.644;2022-11-15T15:32:47;11.00;99.90
18648;DHT22;9453;50.294;18.644;2022-11-15T15:35:15;10.90;99.90
18648;DHT22;9453;50.294;18.644;2022-11-15T15:37:43;10.80;99.90
18648;DHT22;9453;50.294;18.644;2022-11-15T15:40:14;10.70;99.90
18648;DHT22;9453;50.294;18.644;2022-11-15T15:42:42;10.70;99.90
18648;DHT22;9453;50.294;18.644;2022-11-15T15:45:09;10.60;99.90
18648;DHT22;9453;50.294;18.644;2022-11-15T15:47:37;10.50;99.90
18648;DHT22;9453;50.294;18.644;2022-11-15T15:50:17;10.50;99.90
18648;DHT22;9453;50.294;18.644;2022-11-15T15:52:46;10.50;99.90
18648;DHT22;9453;50.294;18.644;2022-11-15T15:55:15;10.40;99.90
18648;DHT22;9453;50.294;18.644;2022-11-15T15:57:42;10.30;99.90
18648;DHT22;9453;50.294;18.644;2022-11-15T16:00:10;10.30;99.90
18648;DHT22;9453;50.294;18.644;2022-11-15T16:02:37;10.30;99.90
18648;DHT22;9453;50.294;18.644;2022-11-15T16:05:05;10.30;99.90
18648;DHT22;9453;50.294;18.644;2022-11-15T16:07:32;10.30;99.90
18648;DHT22;9453;50.294;18.644;2022-11-15T16:09:59;10.20;99.90
18648;DHT22;9453;50.294;18.644;2022-11-15T16:12:28;10.20;99.90
18648;DHT22;9453;50.294;18.644;2022-11-15T16:14:55;10.20;99.90
18648;DHT22;9453;50.294;18.644;2022-11-15T16:17:25;10.00;99.90
18648;DHT22;9453;50.294;18.644;2022-11-15T16:19:52;10.30;99.90
18648;DHT22;9453;50.294;18.644;2022-11-15T16:22:19;10.10;99.90
18648;DHT22;9453;50.294;18.644;2022-11-15T16:24:46;10.30;99.90
18648;DHT22;9453;50.294;18.644;2022-11-15T16:27:15;10.20;99.90
18648;DHT22;9453;50.294;18.644;2022-11-15T16:29:46;10.20;99.90
18648;DHT22;9453;50.294;18.644;2022-11-15T16:32:14;10.20;99.90
18648;DHT22;9453;50.294;18.644;2022-11-15T16:34:41;10.20;99.90
18648;DHT22;9453;50.294;18.644;2022-11-15T16:37:15;10.20;99.90
18648;DHT22;9453;50.294;18.644;2022-11-15T16:39:46;10.20;99.90
18648;DHT22;9453;50.294;18.644;2022-11-15T16:42:13;10.10;99.90
18648;DHT22;9453;50.294;18.644;2022-11-15T16:44:40;10.20;99.90
18648;DHT22;9453;50.294;18.644;2022-11-15T16:47:16;10.20;99.90
18648;DHT22;9453;50.294;18.644;2022-11-15T16:49:44;10.20;99.90
18648;DHT22;9453;50.294;18.644;2022-11-15T16:52:11;10.20;99.90
18648;DHT22;9453;50.294;18.644;2022-11-15T16:54:38;10.20;99.90
18648;DHT22;9453;50.294;18.644;2022-11-15T16:57:06;10.10;99.90
18648;DHT22;9453;50.294;18.644;2022-11-15T16:59:34;10.20;99.90
18648;DHT22;9453;50.294;18.644;2022-11-15T17:02:01;10.10;99.90
18648;DHT22;9453;50.294;18.644;2022-11-15T17:04:29;10.10;99.90
18648;DHT22;9453;50.294;18.644;2022-11-15T17:06:59;10.00;99.90
18648;DHT22;9453;50.294;18.644;2022-11-15T17:09:26;10.10;99.90
18648;DHT22;9453;50.294;18.644;2022-11-15T17:11:53;10.20;99.90
18648;DHT22;9453;50.294;18.644;2022-11-15T17:14:20;10.20;99.90
18648;DHT22;9453;50.294;18.644;2022-11-15T17:16:47;10.20;99.90
18648;DHT22;9453;50.294;18.644;2022-11-15T17:19:16;10.40;99.90
18648;DHT22;9453;50.294;18.644;2022-11-15T17:21:45;10.30;99.90
18648;DHT22;9453;50.294;18.644;2022-11-15T17:24:13;10.40;99.90
18648;DHT22;9453;50.294;18.644;2022-11-15T17:26:41;10.40;99.90
18648;DHT22;9453;50.294;18.644;2022-11-15T17:29:08;10.40;99.90
18648;DHT22;9453;50.294;18.644;2022-11-15T17:31:35;10.40;99.90
18648;DHT22;9453;50.294;18.644;2022-11-15T17:34:03;10.40;99.90
18648;DHT22;9453;50.294;18.644;2022-11-15T17:36:30;10.40;99.90
18648;DHT22;9453;50.294;18.644;2022-11-15T17:39:00;10.30;99.90
18648;DHT22;9453;50.294;18.644;2022-11-15T17:41:28;10.40;99.90
18648;DHT22;9453;50.294;18.644;2022-11-15T17:43:55;10.30;99.90
18648;DHT22;9453;50.294;18.644;2022-11-15T17:46:24;10.30;99.90
18648;DHT22;9453;50.294;18.644;2022-11-15T17:48:51;10.30;99.90
18648;DHT22;9453;50.294;18.644;2022-11-15T17:51:21;10.30;99.90
18648;DHT22;9453;50.294;18.644;2022-11-15T17:53:48;10.30;99.90
18648;DHT22;9453;50.294;18.644;2022-11-15T17:56:18;10.40;99.90
18648;DHT22;9453;50.294;18.644;2022-11-15T17:58:50;10.40;99.90
18648;DHT22;9453;50.294;18.644;2022-11-15T18:01:19;10.40;99.90
18648;DHT22;9453;50.294;18.644;2022-11-15T18:03:47;10.30;99.90
18648;DHT22;9453;50.294;18.644;2022-11-15T18:06:15;10.30;99.90
18648;DHT22;9453;50.294;18.644;2022-11-15T18:08:44;10.30;99.90
18648;DHT22;9453;50.294;18.644;2022-11-15T18:11:13;10.30;99.90
18648;DHT22;9453;50.294;18.644;2022-11-15T18:13:43;10.30;99.90
18648;DHT22;9453;50.294;18.644;2022-11-15T18:16:14;10.40;99.90
18648;DHT22;9453;50.294;18.644;2022-11-15T18:18:42;10.30;99.90
18648;DHT22;9453;50.294;18.644;2022-11-15T18:21:11;10.30;99.90
18648;DHT22;9453;50.294;18.644;2022-11-15T18:23:39;10.30;99.90
18648;DHT22;9453;50.294;18.644;2022-11-15T18:26:09;10.30;99.90
18648;DHT22;9453;50.294;18.644;2022-11-15T18:28:39;10.20;99.90
18648;DHT22;9453;50.294;18.644;2022-11-15T18:31:14;10.20;99.90
18648;DHT22;9453;50.294;18.644;2022-11-15T18:33:41;10.30;99.90
18648;DHT22;9453;50.294;18.644;2022-11-15T18:36:11;10.30;99.90
18648;DHT22;9453;50.294;18.644;2022-11-15T18:38:38;10.30;99.90
18648;DHT22;9453;50.294;18.644;2022-11-15T18:41:08;10.20;99.90
18648;DHT22;9453;50.294;18.644;2022-11-15T18:43:36;10.20;99.90
18648;DHT22;9453;50.294;18.644;2022-11-15T18:46:03;10.20;99.90
18648;DHT22;9453;50.294;18.644;2022-11-15T18:48:32;10.20;99.90
18648;DHT22;9453;50.294;18.644;2022-11-15T18:51:01;10.20;99.90
18648;DHT22;9453;50.294;18.644;2022-11-15T18:53:28;10.30;99.90
18648;DHT22;9453;50.294;18.644;2022-11-15T18:55:59;10.20;99.90
18648;DHT22;9453;50.294;18.644;2022-11-15T18:58:29;10.20;99.90
18648;DHT22;9453;50.294;18.644;2022-11-15T19:01:00;10.20;99.90
18648;DHT22;9453;50.294;18.644;2022-11-15T19:03:32;10.20;99.90
18648;DHT22;9453;50.294;18.644;2022-11-15T19:06:03;10.30;99.90
18648;DHT22;9453;50.294;18.644;2022-11-15T19:08:32;10.20;99.90
18648;DHT22;9453;50.294;18.644;2022-11-15T19:11:02;10.20;99.90
18648;DHT22;9453;50.294;18.644;2022-11-15T19:13:29;10.20;99.90
18648;DHT22;9453;50.294;18.644;2022-11-15T19:15:57;10.30;99.90
18648;DHT22;9453;50.294;18.644;2022-11-15T19:18:25;10.30;99.90
18648;DHT22;9453;50.294;18.644;2022-11-15T19:20:54;10.30;99.90
18648;DHT22;9453;50.294;18.644;2022-11-15T19:23:27;10.30;99.90
18648;DHT22;9453;50.294;18.644;2022-11-15T19:25:59;10.30;99.90
18648;DHT22;9453;50.294;18.644;2022-11-15T19:28:27;10.30;99.90
18648;DHT22;9453;50.294;18.644;2022-11-15T19:31:02;10.30;99.90
18648;DHT22;9453;50.294;18.644;2022-11-15T19:33:29;10.30;99.90
18648;DHT22;9453;50.294;18.644;2022-11-15T19:36:00;10.30;99.90
18648;DHT22;9453;50.294;18.644;2022-11-15T19:38:29;10.40;99.90
18648;DHT22;9453;50.294;18.644;2022-11-15T19:40:57;10.40;99.90
18648;DHT22;9453;50.294;18.644;2022-11-15T19:43:25;10.40;99.90
18648;DHT22;9453;50.294;18.644;2022-11-15T19:45:52;10.40;99.90
18648;DHT22;9453;50.294;18.644;2022-11-15T19:48:19;10.40;99.90
18648;DHT22;9453;50.294;18.644;2022-11-15T19:50:46;10.40;99.90
18648;DHT22;9453;50.294;18.644;2022-11-15T19:53:15;10.40;99.90
18648;DHT22;9453;50.294;18.644;2022-11-15T19:55:52;10.40;99.90
18648;DHT22;9453;50.294;18.644;2022-11-15T19:58:19;10.40;99.90
18648;DHT22;9453;50.294;18.644;2022-11-15T20:00:46;10.40;99.90
18648;DHT22;9453;50.294;18.644;2022-11-15T20:03:13;10.40;99.90
18648;DHT22;9453;50.294;18.644;2022-11-15T20:05:40;10.40;99.90
18648;DHT22;9453;50.294;18.644;2022-11-15T20:08:07;10.50;99.90
18648;DHT22;9453;50.294;18.644;2022-11-15T20:10:37;10.50;99.90
18648;DHT22;9453;50.294;18.644;2022-11-15T20:13:04;10.40;99.90
18648;DHT22;9453;50.294;18.644;2022-11-15T20:15:31;10.30;99.90
18648;DHT22;9453;50.294;18.644;2022-11-15T20:17:58;10.30;99.90
18648;DHT22;9453;50.294;18.644;2022-11-15T20:20:25;10.60;99.90
18648;DHT22;9453;50.294;18.644;2022-11-15T20:22:52;10.40;99.90
18648;DHT22;9453;50.294;18.644;2022-11-15T20:25:19;10.40;99.90
18648;DHT22;9453;50.294;18.644;2022-11-15T20:27:47;10.50;99.90
18648;DHT22;9453;50.294;18.644;2022-11-15T20:30:15;10.30;99.90
18648;DHT22;9453;50.294;18.644;2022-11-15T20:32:42;10.40;99.90
18648;DHT22;9453;50.294;18.644;2022-11-15T20:35:09;10.40;99.90
18648;DHT22;9453;50.294;18.644;2022-11-15T20:37:36;10.50;99.90
18648;DHT22;9453;50.294;18.644;2022-11-15T20:40:04;10.40;99.90
18648;DHT22;9453;50.294;18.644;2022-11-15T20:42:31;10.50;99.90
18648;DHT22;9453;50.294;18.644;2022-11-15T20:44:59;10.40;99.90
18648;DHT22;9453;50.294;18.644;2022-11-15T20:47:29;10.40;99.90
18648;DHT22;9453;50.294;18.644;2022-11-15T20:49:56;10.40;99.90
18648;DHT22;9453;50.294;18.644;2022-11-15T20:52:23;10.40;99.90
18648;DHT22;9453;50.294;18.644;2022-11-15T20:54:49;10.40;99.90
18648;DHT22;9453;50.294;18.644;2022-11-15T20:57:16;10.40;99.90
18648;DHT22;9453;50.294;18.644;2022-11-15T20:59:43;10.40;99.90
18648;DHT22;9453;50.294;18.644;2022-11-15T21:02:13;10.40;99.90
18648;DHT22;9453;50.294;18.644;2022-11-15T21:04:40;10.40;99.90
18648;DHT22;9453;50.294;18.644;2022-11-15T21:07:07;10.50;99.90
18648;DHT22;9453;50.294;18.644;2022-11-15T21:09:34;10.40;99.90